ブエノスアイレス/エセイサ の空港の天気 - METARとTAF

エセイサ国際空港 ( SAEZ / EZE ) - アルゼンチン ブエノスアイレス州、Ezeiza
飛行場実況気象(Metar)
観測時間06/01 04:00 ART (06/01 07:00 UTC)
風向・風速西南西 2m/s
視程10km以上
天気現象
なし
気温6℃
湿度93%
気圧1022hPa
METARSAEZ 010700Z 24004KT CAVOK 06/05 Q1022 NOSIG
過去の天気等 Google飛行場航空写真 Wunderground天気予報

過去48時間のMETAR

飛行場予報(TAF)
発表時間: 6/01 03:04 ART (6/01 06:04 UTC)
予報対象時間: 1日3時 ART ~ 2日3時 ART
風向・風速南西 3m/s
視程10km以上
なし
1日13時 ART ~ 1日15時 ART に徐々に
風向・風速南 3m/s
視程10km以上
全天の8割程度の雲 雲底高度 910m
1日21時 ART ~ 1日22時 ART に徐々に
風向・風速不定 2m/s
視程10km以上
なし
TAF COR SAEZ 010604Z 0106/0206 23005KT CAVOK TX13/0118Z TN05/0110Z
BECMG 0116/0118 18005KT 9999 BKN030
BECMG 0200/0201 VRB03KT CAVOK